createdAt,value
2019-04-20T00:00:54.451Z,78.41
2019-04-20T00:03:26.009Z,78.52
2019-04-20T00:06:01.687Z,78.98
2019-04-20T00:08:33.203Z,78.37
2019-04-20T00:11:07.268Z,78.64
2019-04-20T00:13:40.670Z,79.16
2019-04-20T00:16:00.001Z,79.18
2019-04-20T00:18:34.503Z,78.30
2019-04-20T00:21:05.653Z,78.73
2019-04-20T00:23:39.917Z,79.17
2019-04-20T00:26:14.834Z,78.24
2019-04-20T00:28:58.670Z,78.01
2019-04-20T00:31:23.446Z,78.47
2019-04-20T00:33:49.679Z,78.06
2019-04-20T00:36:07.413Z,78.53
2019-04-20T00:38:45.314Z,78.71
2019-04-20T00:41:10.391Z,79.03
2019-04-20T00:43:39.118Z,79.30
2019-04-20T00:46:18.372Z,79.18
2019-04-20T00:48:47.507Z,79.37
2019-04-20T00:51:26.286Z,79.23
2019-04-20T00:53:41.514Z,79.74
2019-04-20T00:56:07.551Z,81.55
2019-04-20T00:58:50.786Z,80.68
2019-04-20T01:01:27.761Z,79.89
2019-04-20T01:03:49.670Z,80.09
2019-04-20T01:06:38.419Z,81.23
2019-04-20T01:08:51.384Z,82.27
2019-04-20T01:11:27.510Z,81.16
2019-04-20T01:13:55.376Z,81.08
2019-04-20T01:16:29.554Z,80.77
2019-04-20T01:18:49.273Z,80.75
2019-04-20T01:21:21.541Z,81.67
2019-04-20T01:23:53.289Z,83.00
2019-04-20T01:26:19.716Z,83.36
2019-04-20T01:29:01.785Z,83.26
2019-04-20T01:31:28.446Z,82.13
2019-04-20T01:33:58.908Z,81.17
2019-04-20T01:36:37.153Z,81.05
2019-04-20T01:39:01.443Z,80.88
2019-04-20T01:41:18.140Z,80.69
2019-04-20T01:43:46.412Z,81.24
2019-04-20T01:46:19.957Z,81.67
2019-04-20T01:48:46.250Z,81.27
2019-04-20T01:51:21.198Z,81.62
2019-04-20T01:54:06.322Z,82.17
2019-04-20T01:56:32.909Z,81.97
2019-04-20T01:59:06.067Z,82.09
2019-04-20T02:01:37.457Z,82.12
2019-04-20T02:04:15.805Z,83.16
2019-04-20T02:06:46.195Z,81.85
2019-04-20T02:09:15.023Z,82.29
2019-04-20T02:11:43.056Z,83.84
2019-04-20T02:14:11.991Z,83.20
2019-04-20T02:16:45.872Z,82.20
2019-04-20T02:19:26.670Z,82.25
2019-04-20T02:21:55.425Z,83.03
2019-04-20T02:24:12.510Z,82.35
2019-04-20T02:26:40.974Z,82.21
2019-04-20T02:29:37.478Z,82.15
2019-04-20T02:32:23.681Z,81.97
2019-04-20T02:37:45.144Z,81.73
2019-04-20T02:39:46.294Z,83.32
2019-04-20T02:42:22.656Z,82.40
2019-04-20T02:44:53.035Z,82.27
2019-04-20T02:49:50.950Z,82.38
2019-04-20T02:54:46.405Z,83.36
2019-04-20T03:02:01.485Z,82.95
2019-04-20T03:04:25.813Z,83.53
2019-04-20T03:07:02.302Z,83.21
2019-04-20T03:09:36.474Z,83.38
2019-04-20T03:12:09.640Z,84.42
2019-04-20T03:14:26.559Z,83.86
2019-04-20T03:17:03.310Z,87.22
2019-04-20T03:19:28.635Z,84.31
2019-04-20T03:22:09.453Z,83.31
2019-04-20T03:24:39.073Z,83.54
2019-04-20T03:27:00.761Z,83.02
2019-04-20T03:29:45.721Z,84.05
2019-04-20T03:32:44.265Z,83.49
2019-04-20T03:37:21.299Z,83.40
2019-04-20T03:39:40.565Z,83.33
2019-04-20T03:41:56.980Z,83.69
2019-04-20T03:44:27.858Z,83.72
2019-04-20T03:46:59.743Z,83.95
2019-04-20T03:49:48.358Z,84.40
2019-04-20T03:52:26.170Z,83.96
2019-04-20T03:55:17.459Z,84.31
2019-04-20T03:57:58.717Z,83.87
2019-04-20T04:00:31.115Z,84.38
2019-04-20T04:03:20.220Z,83.83
2019-04-20T04:05:36.900Z,84.23
2019-04-20T04:08:04.303Z,84.07
2019-04-20T04:10:33.673Z,84.03
2019-04-20T04:13:12.712Z,84.22
2019-04-20T04:15:48.767Z,84.08
2019-04-20T04:18:21.272Z,88.02
2019-04-20T04:20:49.770Z,87.67
2019-04-20T04:23:32.667Z,88.92
2019-04-20T04:26:00.678Z,85.81
2019-04-20T04:28:30.003Z,85.32
2019-04-20T04:31:04.087Z,84.92
2019-04-20T04:33:51.990Z,85.09
2019-04-20T04:35:59.178Z,84.91
2019-04-20T04:38:37.771Z,85.02
2019-04-20T04:41:08.480Z,85.60
2019-04-20T04:43:36.019Z,85.14
2019-04-20T04:45:44.707Z,85.19
2019-04-20T04:48:18.987Z,85.54
2019-04-20T04:50:50.871Z,85.27
2019-04-20T04:53:28.552Z,85.37
2019-04-20T04:55:50.823Z,86.20
2019-04-20T04:58:12.837Z,85.52
2019-04-20T05:00:42.481Z,85.84
2019-04-20T05:03:28.466Z,85.21
2019-04-20T05:06:06.465Z,86.03
2019-04-20T05:08:27.420Z,86.45
2019-04-20T05:10:49.973Z,86.62
2019-04-20T05:13:18.292Z,86.34
2019-04-20T05:16:00.440Z,87.07
2019-04-20T05:18:41.509Z,87.51
2019-04-20T05:21:13.101Z,87.17
2019-04-20T05:23:31.709Z,87.58
2019-04-20T05:26:22.684Z,88.02
2019-04-20T05:28:41.625Z,88.44
2019-04-20T05:31:02.993Z,88.36
2019-04-20T05:33:48.839Z,89.03
2019-04-20T05:36:20.504Z,89.24
2019-04-20T05:39:19.566Z,89.34
2019-04-20T05:41:17.004Z,89.09
2019-04-20T05:44:00.747Z,89.19
2019-04-20T05:46:37.085Z,89.25
2019-04-20T05:49:13.409Z,88.86
2019-04-20T05:51:47.746Z,88.49
2019-04-20T05:54:09.798Z,88.11
2019-04-20T05:56:44.502Z,87.74
2019-04-20T05:59:09.103Z,87.42
2019-04-20T06:01:40.810Z,86.65
2019-04-20T06:04:04.250Z,86.59
2019-04-20T06:06:40.419Z,86.49
2019-04-20T06:09:11.631Z,85.44
2019-04-20T06:11:53.184Z,85.53
2019-04-20T06:14:08.049Z,85.56
2019-04-20T06:16:59.412Z,84.83
2019-04-20T06:22:03.522Z,83.01
2019-04-20T06:24:39.845Z,81.51
2019-04-20T06:27:14.581Z,80.93
2019-04-20T06:29:31.259Z,80.94
2019-04-20T06:32:06.929Z,79.85
2019-04-20T06:37:03.658Z,78.90
2019-04-20T06:42:10.860Z,78.82
2019-04-20T06:49:33.242Z,77.94
2019-04-20T06:52:24.356Z,77.23
2019-04-20T06:54:53.712Z,76.00
2019-04-20T06:57:29.137Z,75.87
2019-04-20T06:59:57.831Z,75.63
2019-04-20T07:02:33.743Z,74.74
2019-04-20T07:05:10.024Z,74.56
2019-04-20T07:07:26.621Z,74.24
2019-04-20T07:12:22.820Z,73.80
2019-04-20T07:14:48.269Z,73.80
2019-04-20T07:17:40.772Z,73.32
2019-04-20T07:20:02.784Z,73.99
2019-04-20T07:22:33.735Z,72.30
2019-04-20T07:25:01.375Z,71.72
2019-04-20T07:27:35.398Z,72.10
2019-04-20T07:30:03.859Z,71.95
2019-04-20T07:32:32.604Z,70.07
2019-04-20T07:35:02.372Z,68.02
2019-04-20T07:40:07.378Z,67.12
2019-04-20T07:42:41.197Z,68.79
2019-04-20T07:45:13.106Z,66.80
2019-04-20T07:47:42.896Z,66.45
2019-04-20T07:50:03.715Z,66.43
2019-04-20T07:52:14.546Z,68.09
2019-04-20T07:55:26.353Z,66.73
2019-04-20T07:57:30.658Z,65.36
2019-04-20T07:59:59.142Z,64.38
2019-04-20T08:02:58.720Z,62.34
2019-04-20T08:05:18.215Z,61.19
2019-04-20T08:07:43.115Z,62.94
2019-04-20T08:10:09.135Z,59.94
2019-04-20T08:15:36.472Z,59.04
2019-04-20T08:17:54.831Z,57.03
2019-04-20T08:20:21.784Z,54.39
2019-04-20T08:22:55.240Z,54.72
2019-04-20T08:25:16.774Z,55.37
2019-04-20T08:27:52.945Z,54.36
2019-04-20T08:30:57.176Z,54.96
2019-04-20T08:33:32.565Z,52.34
2019-04-20T08:36:09.172Z,50.58
2019-04-20T08:41:00.146Z,52.20
2019-04-20T08:43:42.554Z,51.26
2019-04-20T08:46:00.353Z,50.59
2019-04-20T08:48:32.849Z,49.48
2019-04-20T08:51:01.877Z,49.42
2019-04-20T08:53:30.882Z,49.38
2019-04-20T08:55:54.265Z,51.36
2019-04-20T08:58:11.381Z,50.65
2019-04-20T09:00:48.537Z,50.92
2019-04-20T09:03:19.407Z,49.57
2019-04-20T09:05:49.066Z,49.86
2019-04-20T09:08:17.842Z,49.90
2019-04-20T09:11:00.001Z,49.03
2019-04-20T09:13:21.432Z,51.48
2019-04-20T09:15:40.452Z,49.95
2019-04-20T09:18:29.048Z,49.43
2019-04-20T09:21:01.124Z,50.52
2019-04-20T09:23:36.368Z,50.81
2019-04-20T09:26:16.092Z,49.37
2019-04-20T09:28:38.463Z,49.94
2019-04-20T09:31:16.644Z,49.81
2019-04-20T09:33:51.440Z,50.50
2019-04-20T09:36:21.078Z,49.75
2019-04-20T09:39:08.597Z,49.36
2019-04-20T09:41:54.865Z,48.75
2019-04-20T09:44:04.685Z,48.97
2019-04-20T09:46:43.195Z,48.88
2019-04-20T09:49:15.737Z,47.47
2019-04-20T09:51:50.048Z,48.27
2019-04-20T09:54:24.416Z,47.19
2019-04-20T09:56:56.682Z,46.84
2019-04-20T09:59:22.046Z,46.84
2019-04-20T10:01:41.939Z,46.58
2019-04-20T10:04:03.443Z,44.84
2019-04-20T10:06:34.550Z,45.00
2019-04-20T10:09:04.801Z,44.43
2019-04-20T10:11:31.927Z,45.72
2019-04-20T10:14:00.172Z,46.35
2019-04-20T10:16:29.431Z,45.63
2019-04-20T10:18:58.756Z,45.01
2019-04-20T10:21:27.736Z,46.22
2019-04-20T10:23:56.601Z,46.11
2019-04-20T10:26:24.826Z,44.20
2019-04-20T10:28:53.327Z,44.94
2019-04-20T10:31:22.371Z,42.32
2019-04-20T10:33:51.416Z,43.25
2019-04-20T10:36:37.591Z,44.61
2019-04-20T10:39:08.745Z,45.92
2019-04-20T10:41:45.168Z,43.49
2019-04-20T10:44:07.233Z,45.17
2019-04-20T10:46:36.237Z,44.76
2019-04-20T10:49:05.970Z,44.12
2019-04-20T10:51:35.377Z,44.03
2019-04-20T10:54:04.594Z,44.12
2019-04-20T10:56:33.727Z,43.46
2019-04-20T10:59:01.963Z,43.48
2019-04-20T11:01:31.628Z,46.05
2019-04-20T11:04:00.730Z,44.83
2019-04-20T11:06:29.010Z,44.86
2019-04-20T11:08:58.486Z,43.48
2019-04-20T11:11:29.977Z,42.66
2019-04-20T11:14:01.920Z,40.04
2019-04-20T11:16:28.514Z,38.25
2019-04-20T11:18:57.755Z,40.54
2019-04-20T11:21:26.337Z,43.29
2019-04-20T11:23:54.505Z,43.34
2019-04-20T11:26:22.694Z,41.85
2019-04-20T11:28:52.269Z,42.31
2019-04-20T11:31:21.892Z,41.71
2019-04-20T11:33:50.618Z,40.88
2019-04-20T11:36:19.160Z,39.80
2019-04-20T11:38:48.969Z,39.49
2019-04-20T11:41:23.724Z,40.59
2019-04-20T11:43:47.821Z,40.79
2019-04-20T11:46:16.568Z,37.86
2019-04-20T11:48:45.435Z,38.24
2019-04-20T11:51:13.886Z,38.80
2019-04-20T11:53:42.651Z,37.25
2019-04-20T11:56:14.631Z,38.17
2019-04-20T11:58:40.841Z,40.10
2019-04-20T12:01:23.395Z,41.80
2019-04-20T12:03:58.398Z,37.39
2019-04-20T12:06:19.314Z,37.86
2019-04-20T12:08:48.909Z,36.76
2019-04-20T12:11:26.469Z,37.17
2019-04-20T12:13:47.248Z,37.82
2019-04-20T12:16:15.436Z,38.39
2019-04-20T12:18:44.354Z,36.66
2019-04-20T12:21:12.959Z,36.70
2019-04-20T12:23:42.340Z,36.68
2019-04-20T12:26:10.951Z,35.83
2019-04-20T12:28:40.050Z,36.69
2019-04-20T12:31:11.888Z,37.31
2019-04-20T12:33:38.544Z,38.17
2019-04-20T12:36:08.285Z,36.74
2019-04-20T12:38:37.038Z,35.48
2019-04-20T12:41:07.476Z,36.48
2019-04-20T12:43:36.020Z,37.37
2019-04-20T12:46:05.427Z,35.31
2019-04-20T12:48:33.725Z,39.11
2019-04-20T12:51:03.635Z,34.89
2019-04-20T12:53:32.763Z,34.60
2019-04-20T12:56:02.198Z,35.67
2019-04-20T12:58:30.666Z,34.54
2019-04-20T13:00:58.857Z,36.52
2019-04-20T13:03:27.670Z,35.10
2019-04-20T13:05:56.177Z,34.58
2019-04-20T13:08:30.415Z,34.19
2019-04-20T13:10:55.904Z,32.30
2019-04-20T13:13:41.034Z,31.87
2019-04-20T13:16:12.214Z,31.32
2019-04-20T13:18:47.959Z,32.16
2019-04-20T13:21:16.738Z,31.72
2019-04-20T13:23:45.355Z,31.33
2019-04-20T13:26:14.440Z,31.62
2019-04-20T13:28:43.456Z,32.82
2019-04-20T13:31:11.778Z,30.86
2019-04-20T13:33:41.230Z,31.52
2019-04-20T13:36:10.299Z,30.60
2019-04-20T13:38:38.509Z,32.46
2019-04-20T13:41:06.688Z,30.88
2019-04-20T13:43:35.521Z,30.19
2019-04-20T13:46:04.912Z,30.48
2019-04-20T13:48:33.449Z,31.47
2019-04-20T13:51:02.341Z,32.67
2019-04-20T13:53:30.776Z,30.10
2019-04-20T13:55:59.324Z,30.43
2019-04-20T13:58:45.445Z,30.29
2019-04-20T14:01:30.787Z,31.50
2019-04-20T14:04:06.205Z,28.05
2019-04-20T14:06:35.262Z,28.88
2019-04-20T14:09:05.554Z,30.54
2019-04-20T14:11:33.862Z,30.16
2019-04-20T14:14:05.266Z,30.31
2019-04-20T14:16:31.935Z,31.26
2019-04-20T14:19:00.861Z,30.99
2019-04-20T14:21:30.208Z,30.95
2019-04-20T14:23:59.133Z,29.98
2019-04-20T14:26:27.675Z,30.16
2019-04-20T14:28:56.775Z,28.76
2019-04-20T14:31:25.901Z,29.02
2019-04-20T14:33:55.012Z,29.73
2019-04-20T14:36:24.338Z,32.13
2019-04-20T14:38:54.191Z,30.20
2019-04-20T14:41:22.453Z,28.99
2019-04-20T14:43:51.286Z,29.56
2019-04-20T14:46:20.911Z,29.75
2019-04-20T14:48:49.448Z,28.72
2019-04-20T14:51:17.924Z,27.98
2019-04-20T14:53:47.196Z,29.20
2019-04-20T14:56:15.698Z,28.24
2019-04-20T14:59:03.331Z,28.21
2019-04-20T15:01:36.619Z,28.68
2019-04-20T15:04:12.851Z,32.04
2019-04-20T15:06:38.027Z,32.03
2019-04-20T15:09:06.735Z,32.39
2019-04-20T15:11:38.158Z,30.38
2019-04-20T15:14:05.287Z,31.92
2019-04-20T15:16:34.864Z,30.66
2019-04-20T15:19:05.388Z,30.66
2019-04-20T15:21:35.639Z,30.01
2019-04-20T15:24:03.919Z,30.24
2019-04-20T15:26:32.406Z,29.67
2019-04-20T15:33:00.988Z,30.31
2019-04-20T15:35:30.202Z,31.35
2019-04-20T15:37:59.487Z,29.99
2019-04-20T15:40:28.929Z,32.28
2019-04-20T15:43:05.905Z,30.99
2019-04-20T15:45:27.733Z,29.47
2019-04-20T15:47:56.326Z,30.65
2019-04-20T15:50:25.659Z,30.16
2019-04-20T15:52:56.589Z,33.01
2019-04-20T15:55:30.347Z,31.89
2019-04-20T15:57:55.433Z,32.76
2019-04-20T16:00:24.604Z,34.02
2019-04-20T16:02:54.457Z,33.77
2019-04-20T16:05:28.230Z,33.73
2019-04-20T16:08:00.586Z,34.66
2019-04-20T16:10:28.482Z,33.29
2019-04-20T16:13:11.940Z,33.77
2019-04-20T16:15:27.599Z,34.70
2019-04-20T16:17:56.798Z,33.67
2019-04-20T16:20:26.814Z,34.08
2019-04-20T16:22:56.388Z,33.37
2019-04-20T16:25:35.378Z,34.45
2019-04-20T16:28:03.740Z,35.00
2019-04-20T16:30:33.713Z,33.67
2019-04-20T16:33:02.783Z,34.41
2019-04-20T16:35:32.207Z,34.20
2019-04-20T16:38:00.475Z,34.89
2019-04-20T16:40:29.471Z,34.22
2019-04-20T16:42:58.499Z,35.01
2019-04-20T16:45:27.545Z,33.64
2019-04-20T16:47:58.802Z,34.87
2019-04-20T16:50:26.911Z,34.47
2019-04-20T16:52:55.198Z,34.63
2019-04-20T16:55:23.373Z,33.99
2019-04-20T16:57:52.980Z,34.11
2019-04-20T17:00:21.251Z,33.94
2019-04-20T17:02:50.096Z,33.64
2019-04-20T17:05:18.934Z,34.13
2019-04-20T17:07:53.099Z,34.45
2019-04-20T17:10:22.397Z,34.27
2019-04-20T17:12:51.595Z,35.27
2019-04-20T17:15:21.505Z,34.98
2019-04-20T17:17:51.602Z,35.40
2019-04-20T17:20:19.860Z,35.21
2019-04-20T17:22:48.697Z,35.35
2019-04-20T17:25:16.981Z,35.68
2019-04-20T17:27:59.458Z,35.93
2019-04-20T17:30:35.802Z,35.98
2019-04-20T17:33:06.279Z,36.68
2019-04-20T17:35:43.482Z,36.58
2019-04-20T17:38:04.876Z,37.06
2019-04-20T17:40:51.209Z,39.07
2019-04-20T17:43:12.731Z,39.07
2019-04-20T17:45:43.246Z,40.11
2019-04-20T17:48:17.630Z,41.26
2019-04-20T17:50:56.165Z,42.79
2019-04-20T17:53:22.932Z,41.85
2019-04-20T17:55:53.468Z,43.24
2019-04-20T17:58:27.880Z,45.16
2019-04-20T18:01:23.000Z,46.35
2019-04-20T18:04:23.243Z,47.14
2019-04-20T18:06:39.490Z,47.39
2019-04-20T18:09:07.107Z,46.82
2019-04-20T18:11:25.663Z,46.96
2019-04-20T18:14:05.580Z,46.91
2019-04-20T18:16:46.820Z,47.21
2019-04-20T18:19:07.391Z,48.12
2019-04-20T18:21:32.943Z,48.39
2019-04-20T18:24:05.242Z,48.39
2019-04-20T18:26:56.112Z,49.76
2019-04-20T18:29:20.203Z,49.02
2019-04-20T18:32:23.224Z,50.12
2019-04-20T18:35:04.550Z,50.97
2019-04-20T18:37:32.689Z,49.36
2019-04-20T18:40:06.193Z,50.42
2019-04-20T18:42:37.168Z,51.18
2019-04-20T18:45:17.227Z,51.43
2019-04-20T18:47:50.602Z,52.39
2019-04-20T18:50:10.508Z,53.00
2019-04-20T18:52:31.669Z,52.37
2019-04-20T18:55:01.535Z,52.14
2019-04-20T18:57:32.700Z,52.00
2019-04-20T19:00:00.921Z,50.66
2019-04-20T19:02:34.788Z,50.29
2019-04-20T19:05:02.127Z,51.58
2019-04-20T19:07:34.857Z,52.00
2019-04-20T19:10:09.346Z,52.16
2019-04-20T19:12:41.413Z,53.47
2019-04-20T19:15:27.947Z,54.97
2019-04-20T19:18:04.285Z,53.74
2019-04-20T19:20:34.977Z,55.03
2019-04-20T19:23:04.164Z,54.71
2019-04-20T19:25:36.731Z,53.92
2019-04-20T19:28:04.702Z,53.93
2019-04-20T19:30:41.240Z,52.57
2019-04-20T19:33:20.563Z,53.45
2019-04-20T19:35:41.853Z,52.59
2019-04-20T19:38:10.519Z,53.13
2019-04-20T19:40:45.631Z,52.50
2019-04-20T19:43:15.565Z,56.39
2019-04-20T19:46:00.086Z,56.08
2019-04-20T19:48:17.666Z,55.85
2019-04-20T19:50:57.720Z,53.78
2019-04-20T19:53:26.423Z,55.20
2019-04-20T19:55:49.086Z,53.72
2019-04-20T19:58:18.790Z,55.04
2019-04-20T20:00:53.472Z,54.48
2019-04-20T20:03:19.749Z,56.11
2019-04-20T20:05:51.820Z,54.60
2019-04-20T20:08:23.487Z,53.16
2019-04-20T20:10:48.522Z,54.49
2019-04-20T20:13:18.125Z,56.77
2019-04-20T20:15:47.001Z,58.07
2019-04-20T20:18:33.122Z,58.38
2019-04-20T20:20:59.614Z,59.34
2019-04-20T20:23:16.258Z,60.71
2019-04-20T20:25:47.551Z,60.37
2019-04-20T20:28:29.898Z,60.92
2019-04-20T20:30:56.844Z,61.79
2019-04-20T20:33:37.364Z,61.58
2019-04-20T20:35:53.623Z,60.97
2019-04-20T20:38:22.830Z,59.66
2019-04-20T20:40:54.848Z,60.06
2019-04-20T20:43:23.083Z,60.28
2019-04-20T20:46:01.376Z,60.66
2019-04-20T20:48:31.360Z,60.71
2019-04-20T20:51:06.447Z,61.23
2019-04-20T20:53:21.930Z,62.25
2019-04-20T20:55:48.750Z,61.88
2019-04-20T20:58:19.172Z,61.92
2019-04-20T21:00:55.845Z,62.19
2019-04-20T21:03:22.461Z,61.35
2019-04-20T21:05:45.382Z,61.76
2019-04-20T21:08:13.857Z,62.22
2019-04-20T21:10:44.297Z,63.16
2019-04-20T21:13:13.861Z,62.48
2019-04-20T21:15:45.342Z,62.71
2019-04-20T21:18:33.301Z,64.47
2019-04-20T21:21:00.046Z,63.83
2019-04-20T21:23:28.405Z,63.66
2019-04-20T21:26:01.279Z,62.63
2019-04-20T21:28:29.776Z,63.14
2019-04-20T21:31:08.077Z,62.23
2019-04-20T21:33:34.243Z,62.86
2019-04-20T21:36:00.885Z,61.69
2019-04-20T21:38:35.537Z,63.07
2019-04-20T21:41:05.079Z,63.12
2019-04-20T21:43:34.766Z,62.55
2019-04-20T21:46:04.604Z,64.16
2019-04-20T21:48:45.302Z,61.51
2019-04-20T21:51:15.286Z,61.46
2019-04-20T21:53:33.410Z,60.46
2019-04-20T21:56:00.060Z,61.48
2019-04-20T21:58:35.447Z,62.16
2019-04-20T22:01:09.242Z,63.06
2019-04-20T22:03:28.107Z,63.07
2019-04-20T22:06:02.363Z,64.51
2019-04-20T22:08:32.575Z,63.83
2019-04-20T22:11:01.837Z,64.41
2019-04-20T22:13:36.148Z,65.05
2019-04-20T22:16:05.183Z,65.97
2019-04-20T22:18:31.810Z,66.18
2019-04-20T22:21:12.303Z,65.92
2019-04-20T22:23:47.524Z,67.31
2019-04-20T22:26:11.983Z,67.26
2019-04-20T22:28:31.997Z,68.22
2019-04-20T22:31:00.279Z,67.06
2019-04-20T22:33:35.030Z,67.61
2019-04-20T22:36:04.191Z,67.82
2019-04-20T22:38:55.861Z,68.14
2019-04-20T22:41:20.154Z,68.54
2019-04-20T22:43:50.366Z,68.82
2019-04-20T22:46:24.783Z,69.22
2019-04-20T22:48:59.547Z,68.53
2019-04-20T22:51:34.291Z,69.32
2019-04-20T22:54:03.801Z,69.79
2019-04-20T22:56:35.326Z,70.33
2019-04-20T22:58:57.547Z,70.03
2019-04-20T23:01:29.852Z,70.60
2019-04-20T23:03:48.671Z,70.60
2019-04-20T23:06:17.471Z,71.52
2019-04-20T23:08:55.671Z,71.20
2019-04-20T23:11:23.611Z,73.02
2019-04-20T23:13:49.697Z,72.40
2019-04-20T23:16:17.635Z,72.20
2019-04-20T23:18:46.402Z,72.43
2019-04-20T23:21:17.383Z,72.63
2019-04-20T23:23:45.731Z,72.01
2019-04-20T23:26:19.346Z,72.29
2019-04-20T23:28:48.282Z,73.01
2019-04-20T23:31:19.679Z,73.30
2019-04-20T23:33:44.002Z,73.57
2019-04-20T23:36:12.193Z,74.56
2019-04-20T23:38:44.227Z,74.12
2019-04-20T23:41:10.302Z,74.29
2019-04-20T23:43:49.299Z,74.32
2019-04-20T23:46:31.126Z,74.61
2019-04-20T23:49:22.310Z,74.65
2019-04-20T23:52:05.450Z,74.46
2019-04-20T23:54:22.090Z,74.50
2019-04-20T23:56:46.224Z,73.89
2019-04-20T23:59:14.815Z,73.66
